createdAt,value
2023-03-20T00:00:18.725Z,100475.78
2023-03-20T00:02:48.291Z,100513.25
2023-03-20T00:05:22.672Z,100497.63
2023-03-20T00:07:54.253Z,100496.00
2023-03-20T00:10:23.669Z,100519.75
2023-03-20T00:12:53.282Z,100519.06
2023-03-20T00:15:30.941Z,100525.56
2023-03-20T00:17:59.521Z,100514.91
2023-03-20T00:20:28.473Z,100517.28
2023-03-20T00:22:58.120Z,100522.91
2023-03-20T00:25:27.157Z,100528.94
2023-03-20T00:27:58.466Z,100477.28
2023-03-20T00:30:31.063Z,100503.19
2023-03-20T00:33:03.863Z,100514.81
2023-03-20T00:35:33.275Z,100527.75
2023-03-20T00:38:04.359Z,100527.06
2023-03-20T00:40:33.267Z,100533.56
2023-03-20T00:43:07.800Z,100531.69
2023-03-20T00:45:37.020Z,100503.56
2023-03-20T00:48:12.464Z,100529.84
2023-03-20T00:50:41.023Z,100537.53
2023-03-20T00:53:11.891Z,100485.63
2023-03-20T00:55:42.820Z,100505.25
2023-03-20T00:58:14.398Z,100531.69
2023-03-20T01:00:47.537Z,100533.81
2023-03-20T01:03:19.118Z,100541.53
2023-03-20T01:05:49.635Z,100538.97
2023-03-20T01:08:21.536Z,100539.22
2023-03-20T01:10:54.999Z,100514.81
2023-03-20T01:13:28.351Z,100538.41
2023-03-20T01:15:58.715Z,100489.03
2023-03-20T01:18:28.130Z,100530.53
2023-03-20T01:20:56.795Z,100532.59
2023-03-20T01:23:31.404Z,100530.75
2023-03-20T01:26:00.857Z,100535.25
2023-03-20T01:28:32.725Z,100504.84
2023-03-20T01:31:01.179Z,100527.75
2023-03-20T01:33:29.704Z,100458.59
2023-03-20T01:35:59.783Z,100536.97
2023-03-20T01:38:29.476Z,100514.19
2023-03-20T01:41:00.922Z,100536.13
2023-03-20T01:43:31.339Z,100537.38
2023-03-20T01:46:04.489Z,100524.25
2023-03-20T01:48:57.413Z,100532.63
2023-03-20T01:51:26.986Z,100543.28
2023-03-20T01:53:59.490Z,100542.00
2023-03-20T01:56:33.219Z,100527.41
2023-03-20T01:59:08.256Z,100539.91
2023-03-20T02:01:40.265Z,100531.81
2023-03-20T02:04:10.110Z,100523.06
2023-03-20T02:06:40.424Z,100549.13
2023-03-20T02:09:09.968Z,100506.34
2023-03-20T02:11:39.198Z,100541.63
2023-03-20T02:14:09.873Z,100547.00
2023-03-20T02:16:38.731Z,100528.84
2023-03-20T02:19:10.647Z,100543.69
2023-03-20T02:22:11.633Z,100544.06
2023-03-20T02:25:15.971Z,100544.13
2023-03-20T02:28:03.852Z,100533.44
2023-03-20T02:31:02.384Z,100552.78
2023-03-20T02:34:17.776Z,100553.25
2023-03-20T02:37:33.568Z,100559.91
2023-03-20T02:40:23.485Z,100556.41
2023-03-20T02:43:01.437Z,100540.38
2023-03-20T02:45:32.666Z,100567.72
2023-03-20T02:48:13.617Z,100540.78
2023-03-20T02:50:51.398Z,100549.78
2023-03-20T02:53:33.712Z,100526.88
2023-03-20T02:56:09.815Z,100541.22
2023-03-20T02:58:46.179Z,100559.78
2023-03-20T03:01:21.380Z,100561.84
2023-03-20T03:03:56.073Z,100575.84
2023-03-20T03:06:30.385Z,100564.59
2023-03-20T03:09:05.888Z,100572.31
2023-03-20T03:11:40.103Z,100570.41
2023-03-20T03:14:11.449Z,100553.31
2023-03-20T03:16:44.946Z,100568.53
2023-03-20T03:19:19.200Z,100563.34
2023-03-20T03:21:49.735Z,100535.38
2023-03-20T03:24:40.311Z,100567.28
2023-03-20T03:27:17.563Z,100572.03
2023-03-20T03:29:55.407Z,100567.03
2023-03-20T03:32:30.865Z,100571.63
2023-03-20T03:35:02.619Z,100571.66
2023-03-20T03:37:43.508Z,100522.03
2023-03-20T03:40:21.634Z,100567.06
2023-03-20T03:42:59.536Z,100560.34
2023-03-20T03:45:37.623Z,100531.41
2023-03-20T03:48:12.142Z,100573.50
2023-03-20T03:50:49.028Z,100575.38
2023-03-20T03:53:22.770Z,100581.66
2023-03-20T03:55:55.113Z,100580.41
2023-03-20T03:58:30.966Z,100573.09
2023-03-20T04:01:04.577Z,100585.59
2023-03-20T04:03:40.543Z,100578.97
2023-03-20T04:06:12.958Z,100591.25
2023-03-20T04:08:42.692Z,100591.41
2023-03-20T04:11:16.685Z,100586.88
2023-03-20T04:13:49.012Z,100590.47
2023-03-20T04:16:19.762Z,100607.13
2023-03-20T04:18:51.952Z,100586.50
2023-03-20T04:21:21.170Z,100582.94
2023-03-20T04:23:49.240Z,100554.16
2023-03-20T04:26:17.780Z,100587.13
2023-03-20T04:28:47.813Z,100588.56
2023-03-20T04:31:18.185Z,100598.16
2023-03-20T04:33:51.259Z,100583.34
2023-03-20T04:36:19.606Z,100575.44
2023-03-20T04:38:48.147Z,100611.31
2023-03-20T04:41:16.142Z,100614.22
2023-03-20T04:43:44.505Z,100617.38
2023-03-20T04:46:16.060Z,100619.44
2023-03-20T04:48:45.255Z,100622.56
2023-03-20T04:51:16.499Z,100629.03
2023-03-20T04:53:44.396Z,100609.22
2023-03-20T04:56:15.736Z,100587.53
2023-03-20T04:58:43.932Z,100622.78
2023-03-20T05:01:17.275Z,100605.88
2023-03-20T05:03:46.566Z,100636.31
2023-03-20T05:06:18.572Z,100634.69
2023-03-20T05:08:50.243Z,100622.78
2023-03-20T05:11:18.391Z,100543.69
2023-03-20T05:13:46.572Z,100627.78
2023-03-20T05:16:17.007Z,100634.06
2023-03-20T05:18:45.607Z,100629.69
2023-03-20T05:21:14.003Z,100626.53
2023-03-20T05:23:42.378Z,100616.75
2023-03-20T05:26:12.410Z,100592.75
2023-03-20T05:28:41.217Z,100585.88
2023-03-20T05:31:10.621Z,100596.28
2023-03-20T05:33:40.444Z,100609.19
2023-03-20T05:36:11.805Z,100600.84
2023-03-20T05:38:41.219Z,100574.56
2023-03-20T05:41:11.658Z,100601.66
2023-03-20T05:43:40.192Z,100584.75
2023-03-20T05:46:09.166Z,100603.69
2023-03-20T05:48:40.727Z,100607.84
2023-03-20T05:51:10.221Z,100589.66
2023-03-20T05:53:38.190Z,100562.00
2023-03-20T05:56:09.577Z,100563.91
2023-03-20T05:58:38.407Z,100622.63
2023-03-20T06:01:07.120Z,100601.06
2023-03-20T06:03:36.750Z,100610.81
2023-03-20T06:06:07.015Z,100613.97
2023-03-20T06:08:37.997Z,100613.94
2023-03-20T06:11:07.197Z,100603.94
2023-03-20T06:13:36.975Z,100624.16
2023-03-20T06:16:06.014Z,100628.09
2023-03-20T06:18:34.635Z,100614.34
2023-03-20T06:21:04.486Z,100625.00
2023-03-20T06:23:36.314Z,100625.34
2023-03-20T06:26:05.253Z,100629.34
2023-03-20T06:28:34.744Z,100610.97
2023-03-20T06:31:05.362Z,100593.28
2023-03-20T06:33:33.723Z,100629.09
2023-03-20T06:36:02.454Z,100633.78
2023-03-20T06:38:30.681Z,100607.19
2023-03-20T06:41:02.121Z,100631.69
2023-03-20T06:43:33.760Z,100614.75
2023-03-20T06:46:01.756Z,100609.81
2023-03-20T06:48:30.168Z,100631.84
2023-03-20T06:50:58.555Z,100643.69
2023-03-20T06:53:28.115Z,100644.94
2023-03-20T06:55:57.194Z,100639.94
2023-03-20T06:58:27.123Z,100591.41
2023-03-20T07:00:55.362Z,100641.41
2023-03-20T07:03:25.389Z,100628.94
2023-03-20T07:05:55.015Z,100641.63
2023-03-20T07:08:23.302Z,100644.34
2023-03-20T07:10:53.454Z,100653.47
2023-03-20T07:13:25.413Z,100644.69
2023-03-20T07:16:04.408Z,100655.59
2023-03-20T07:18:33.768Z,100647.44
2023-03-20T07:21:05.549Z,100657.84
2023-03-20T07:23:36.620Z,100648.63
2023-03-20T07:26:07.412Z,100653.00
2023-03-20T07:28:36.464Z,100621.16
2023-03-20T07:31:06.911Z,100666.22
2023-03-20T07:33:35.635Z,100649.59
2023-03-20T07:36:03.654Z,100664.56
2023-03-20T07:38:36.771Z,100663.25
2023-03-20T07:41:05.261Z,100651.63
2023-03-20T07:43:33.794Z,100643.75
2023-03-20T07:46:03.899Z,100674.53
2023-03-20T07:48:33.926Z,100674.75
2023-03-20T07:51:07.721Z,100668.94
2023-03-20T07:53:36.021Z,100660.13
2023-03-20T07:56:04.496Z,100678.59
2023-03-20T07:58:35.365Z,100677.53
2023-03-20T08:01:04.164Z,100653.13
2023-03-20T08:03:34.869Z,100686.16
2023-03-20T08:06:06.382Z,100682.59
2023-03-20T08:08:39.236Z,100647.31
2023-03-20T08:11:08.638Z,100677.34
2023-03-20T08:13:37.992Z,100642.78
2023-03-20T08:16:10.196Z,100680.94
2023-03-20T08:18:44.671Z,100696.00
2023-03-20T08:21:13.128Z,100694.69
2023-03-20T08:23:42.840Z,100693.16
2023-03-20T08:26:11.593Z,100701.94
2023-03-20T08:28:47.438Z,100702.41
2023-03-20T08:31:19.086Z,100693.00
2023-03-20T08:33:49.942Z,100700.78
2023-03-20T08:36:20.568Z,100698.66
2023-03-20T08:38:49.787Z,100715.97
2023-03-20T08:41:18.205Z,100705.34
2023-03-20T08:43:47.795Z,100710.81
2023-03-20T08:46:17.062Z,100682.19
2023-03-20T08:48:45.583Z,100690.31
2023-03-20T08:51:16.354Z,100708.88
2023-03-20T08:53:44.650Z,100699.31
2023-03-20T08:56:12.833Z,100702.34
2023-03-20T08:58:42.010Z,100720.22
2023-03-20T09:01:15.478Z,100710.22
2023-03-20T09:03:44.597Z,100713.75
2023-03-20T09:06:12.940Z,100703.63
2023-03-20T09:08:45.181Z,100692.75
2023-03-20T09:11:14.487Z,100720.66
2023-03-20T09:13:44.022Z,100723.69
2023-03-20T09:16:16.312Z,100721.78
2023-03-20T09:18:45.535Z,100720.69
2023-03-20T09:21:13.806Z,100703.81
2023-03-20T09:23:48.862Z,100726.50
2023-03-20T09:26:20.063Z,100724.09
2023-03-20T09:28:53.692Z,100725.03
2023-03-20T09:31:23.523Z,100650.72
2023-03-20T09:33:51.643Z,100725.34
2023-03-20T09:36:22.978Z,100731.53
2023-03-20T09:38:55.442Z,100717.97
2023-03-20T09:41:28.055Z,100730.81
2023-03-20T09:44:09.273Z,100713.97
2023-03-20T09:47:21.236Z,100718.66
2023-03-20T09:50:01.694Z,100730.88
2023-03-20T09:52:34.321Z,100733.19
2023-03-20T09:55:09.355Z,100714.47
2023-03-20T09:57:41.642Z,100723.50
2023-03-20T10:00:16.618Z,100715.66
2023-03-20T10:02:51.676Z,100717.19
2023-03-20T10:05:26.665Z,100681.03
2023-03-20T10:07:58.745Z,100739.53
2023-03-20T10:10:39.518Z,100711.59
2023-03-20T10:13:22.998Z,100727.09
2023-03-20T10:16:01.689Z,100689.75
2023-03-20T10:18:34.724Z,100715.59
2023-03-20T10:21:16.509Z,100703.19
2023-03-20T10:23:57.521Z,100686.09
2023-03-20T10:26:29.318Z,100732.38
2023-03-20T10:29:02.497Z,100722.75
2023-03-20T10:31:41.635Z,100699.31
2023-03-20T10:34:26.009Z,100715.22
2023-03-20T10:37:11.734Z,100709.28
2023-03-20T10:39:51.457Z,100676.16
2023-03-20T10:42:27.119Z,100684.03
2023-03-20T10:44:59.708Z,100685.53
2023-03-20T10:47:35.320Z,100700.78
2023-03-20T10:50:09.103Z,100684.72
2023-03-20T10:52:47.666Z,100673.72
2023-03-20T10:55:22.774Z,100666.44
2023-03-20T10:57:59.097Z,100679.47
2023-03-20T11:00:30.341Z,100672.31
2023-03-20T11:02:58.662Z,100670.56
2023-03-20T11:05:31.992Z,100680.19
2023-03-20T11:08:07.580Z,100655.56
2023-03-20T11:10:38.752Z,100674.09
2023-03-20T11:13:23.820Z,100649.81
2023-03-20T11:15:55.583Z,100675.38
2023-03-20T11:18:26.682Z,100649.88
2023-03-20T11:20:58.765Z,100650.47
2023-03-20T11:23:34.368Z,100664.72
2023-03-20T11:26:06.241Z,100651.13
2023-03-20T11:28:40.765Z,100668.03
2023-03-20T11:31:18.903Z,100645.03
2023-03-20T11:33:54.040Z,100635.50
2023-03-20T11:36:27.914Z,100639.84
2023-03-20T11:39:04.018Z,100644.63
2023-03-20T11:41:31.976Z,100656.72
2023-03-20T11:44:02.505Z,100638.31
2023-03-20T11:46:33.588Z,100647.72
2023-03-20T11:49:22.248Z,100649.63
2023-03-20T11:52:22.487Z,100616.00
2023-03-20T11:55:00.974Z,100647.47
2023-03-20T11:57:36.824Z,100633.09
2023-03-20T12:00:27.319Z,100597.88
2023-03-20T12:02:58.047Z,100633.06
2023-03-20T12:05:36.657Z,100617.44
2023-03-20T12:08:14.153Z,100623.50
2023-03-20T12:10:44.944Z,100622.34
2023-03-20T12:13:18.869Z,100569.56
2023-03-20T12:15:53.757Z,100582.97
2023-03-20T12:18:31.492Z,100595.28
2023-03-20T12:21:10.122Z,100609.84
2023-03-20T12:23:46.442Z,100583.78
2023-03-20T12:26:21.316Z,100604.16
2023-03-20T12:28:57.800Z,100601.84
2023-03-20T12:31:40.229Z,100600.00
2023-03-20T12:34:16.170Z,100589.78
2023-03-20T12:36:48.562Z,100560.75
2023-03-20T12:39:20.302Z,100593.16
2023-03-20T12:42:13.266Z,100576.25
2023-03-20T12:44:50.616Z,100589.78
2023-03-20T12:48:17.178Z,100595.41
2023-03-20T12:50:52.426Z,100591.09
2023-03-20T12:53:43.678Z,100568.47
2023-03-20T12:56:50.816Z,100560.41
2023-03-20T12:59:27.806Z,100566.41
2023-03-20T13:02:00.588Z,100547.03
2023-03-20T13:05:00.370Z,100563.03
2023-03-20T13:07:49.089Z,100558.63
2023-03-20T13:10:23.000Z,100564.94
2023-03-20T13:13:08.824Z,100511.19
2023-03-20T13:15:56.646Z,100548.63
2023-03-20T13:18:45.207Z,100556.38
2023-03-20T13:21:26.398Z,100562.53
2023-03-20T13:24:07.791Z,100550.69
2023-03-20T13:26:45.747Z,100542.38
2023-03-20T13:29:21.849Z,100547.88
2023-03-20T13:32:01.113Z,100537.59
2023-03-20T13:34:43.247Z,100531.03
2023-03-20T13:37:25.884Z,100533.84
2023-03-20T13:40:04.891Z,100524.34
2023-03-20T13:42:43.125Z,100525.91
2023-03-20T13:45:37.686Z,100544.28
2023-03-20T13:48:29.684Z,100486.66
2023-03-20T13:51:06.702Z,100525.22
2023-03-20T13:53:51.196Z,100527.28
2023-03-20T13:56:30.941Z,100512.03
2023-03-20T13:59:12.202Z,100520.00
2023-03-20T14:02:05.981Z,100525.88
2023-03-20T14:04:37.340Z,100501.41
2023-03-20T14:07:35.852Z,100522.13
2023-03-20T14:10:48.522Z,100520.66
2023-03-20T14:13:23.825Z,100489.63
2023-03-20T14:15:59.217Z,100494.16
2023-03-20T14:18:32.586Z,100507.78
2023-03-20T14:21:04.579Z,100484.38
2023-03-20T14:23:38.699Z,100487.38
2023-03-20T14:26:19.160Z,100509.72
2023-03-20T14:29:00.002Z,100507.28
2023-03-20T14:31:35.640Z,100513.28
2023-03-20T14:37:04.150Z,100520.94
2023-03-20T14:39:44.601Z,100518.28
2023-03-20T14:42:40.564Z,100512.06
2023-03-20T14:45:28.753Z,100531.28
2023-03-20T14:48:06.169Z,100514.44
2023-03-20T14:50:51.386Z,100481.69
2023-03-20T14:53:37.269Z,100507.94
2023-03-20T14:56:30.068Z,100531.97
2023-03-20T14:59:20.560Z,100498.56
2023-03-20T15:37:25.873Z,100521.91
2023-03-20T15:40:02.932Z,100525.50
2023-03-20T15:42:41.632Z,100520.44
2023-03-20T15:45:40.070Z,100510.91
2023-03-20T15:48:17.562Z,100510.31
2023-03-20T15:51:07.050Z,100520.38
2023-03-20T15:53:55.428Z,100511.06
2023-03-20T15:59:40.671Z,100535.06
2023-03-20T16:02:21.801Z,100538.78
2023-03-20T16:05:02.726Z,100533.88
2023-03-20T16:10:40.413Z,100485.66
2023-03-20T16:13:41.272Z,100500.31
2023-03-20T16:16:30.483Z,100509.16
2023-03-20T16:19:20.688Z,100532.09
2023-03-20T16:21:58.525Z,100520.03
2023-03-20T16:24:29.481Z,100491.31
2023-03-20T16:27:10.191Z,100523.94
2023-03-20T16:29:50.637Z,100532.81
2023-03-20T16:32:26.928Z,100536.88
2023-03-20T16:35:10.801Z,100545.31
2023-03-20T20:04:29.927Z,100597.75
2023-03-20T20:07:33.668Z,100562.63
2023-03-20T20:09:56.580Z,100617.47
2023-03-20T20:12:35.603Z,100616.81
2023-03-20T20:15:10.878Z,100587.66
2023-03-20T20:17:50.153Z,100559.28
2023-03-20T20:20:25.124Z,100591.59
2023-03-20T20:22:54.980Z,100602.69
2023-03-20T20:25:27.682Z,100606.66
2023-03-20T20:28:02.573Z,100585.69
2023-03-20T20:30:31.234Z,100598.63
2023-03-20T20:33:05.134Z,100577.44
2023-03-20T20:36:01.259Z,100553.06
2023-03-20T20:38:48.864Z,100549.53
2023-03-20T20:41:19.190Z,100608.53
2023-03-20T20:44:15.151Z,100581.66
2023-03-20T20:46:38.997Z,100614.47
2023-03-20T20:49:18.766Z,100571.84
2023-03-20T20:52:06.664Z,100609.53
2023-03-20T20:54:37.703Z,100582.66
2023-03-20T20:57:06.319Z,100605.84
2023-03-20T20:59:37.914Z,100579.34
2023-03-20T21:02:11.499Z,100615.66
2023-03-20T21:04:43.705Z,100597.53
2023-03-20T21:07:17.331Z,100613.97
2023-03-20T21:09:46.333Z,100613.13
2023-03-20T21:12:32.366Z,100561.25
2023-03-20T21:15:03.874Z,100621.06
2023-03-20T21:17:33.060Z,100607.81
2023-03-20T21:20:02.439Z,100622.78
2023-03-20T21:22:42.986Z,100619.56
2023-03-20T21:25:15.173Z,100621.78
2023-03-20T21:27:45.127Z,100596.94
2023-03-20T21:30:19.718Z,100602.56
2023-03-20T21:33:03.523Z,100597.41
2023-03-20T21:38:58.510Z,100591.50
2023-03-20T21:41:17.116Z,100608.22
2023-03-20T21:44:01.440Z,100592.56
2023-03-20T21:59:30.115Z,100591.53
2023-03-20T22:02:02.487Z,100542.31
2023-03-20T22:07:50.736Z,100600.88
2023-03-20T22:11:09.580Z,100610.50
2023-03-20T22:14:02.533Z,100542.59
2023-03-20T22:19:35.874Z,100558.28
2023-03-20T22:22:13.758Z,100576.50
2023-03-20T22:27:55.299Z,100560.47
2023-03-20T22:39:36.625Z,100599.84
2023-03-20T22:42:43.347Z,100523.53
2023-03-20T22:47:53.711Z,100571.69
2023-03-20T22:50:22.397Z,100597.38
2023-03-20T22:52:56.552Z,100594.47
2023-03-20T22:55:30.101Z,100564.00
2023-03-20T22:58:07.336Z,100535.16
2023-03-20T23:00:39.045Z,100589.41
2023-03-20T23:03:22.369Z,100584.81
2023-03-20T23:05:55.611Z,100580.34
2023-03-20T23:08:24.831Z,100582.13
2023-03-20T23:10:55.232Z,100560.41
2023-03-20T23:13:25.944Z,100581.53
2023-03-20T23:15:54.644Z,100565.00
2023-03-20T23:18:24.891Z,100548.22
2023-03-20T23:21:00.541Z,100553.53
2023-03-20T23:23:31.661Z,100561.91
2023-03-20T23:26:05.667Z,100567.13
2023-03-20T23:28:34.159Z,100539.25
2023-03-20T23:31:10.671Z,100535.28
2023-03-20T23:33:41.015Z,100543.41
2023-03-20T23:36:24.762Z,100557.53
2023-03-20T23:38:59.913Z,100558.38
2023-03-20T23:41:54.043Z,100575.06
2023-03-20T23:44:19.462Z,100571.50
2023-03-20T23:46:55.952Z,100576.09
2023-03-20T23:49:27.918Z,100531.66
2023-03-20T23:51:59.740Z,100569.84
2023-03-20T23:54:30.513Z,100556.13
2023-03-20T23:56:58.662Z,100543.00
2023-03-20T23:59:27.782Z,100516.94
